Time;durP1;ratioP1;P1;durP2;ratioP2;P2;SDS_P1;SDS_P2;PMS_P1;PMS_P2;Temp;Humidity;BMP_temperature;BMP_pressure;BME280_temperature;BME280_humidity;BME280_pressure;Samples;Min_cycle;Max_cycle;Signal;HPM_P1;HPM_P2
2022/07/13 00:02:45;;;;;;;0.63;0.30;;;24.40;52.70;23.30;101757.00;;;;5016699;28;20047;-66
2022/07/13 00:05:31;;;;;;;0.52;0.40;;;24.40;52.70;23.30;101754.00;;;;5019244;28;20477;-66
2022/07/13 00:08:17;;;;;;;0.52;0.50;;;24.40;52.70;23.30;101760.00;;;;5018951;28;20072;-66
2022/07/13 00:11:03;;;;;;;1.15;1.05;;;24.40;52.70;23.30;101756.00;;;;5026127;28;20490;-66
2022/07/13 00:13:49;;;;;;;0.25;0.25;;;24.40;52.70;23.30;101754.00;;;;5026454;28;20559;-66
2022/07/13 00:16:35;;;;;;;0.43;0.43;;;24.40;52.70;23.30;101760.00;;;;5022294;28;20103;-66
2022/07/13 00:19:21;;;;;;;0.70;0.50;;;24.40;52.70;23.30;101763.00;;;;5023083;28;20659;-66
2022/07/13 00:22:07;;;;;;;0.40;0.30;;;24.40;52.80;23.30;101764.00;;;;5028840;28;20301;-66
2022/07/13 00:24:54;;;;;;;0.85;0.50;;;24.40;52.80;23.30;101767.00;;;;5017696;28;20130;-66
2022/07/13 00:27:40;;;;;;;0.30;0.30;;;24.40;52.70;23.30;101769.00;;;;5024460;28;20278;-66
2022/07/13 00:30:26;;;;;;;0.43;0.43;;;24.40;52.70;23.30;101766.00;;;;5026712;28;20331;-66
2022/07/13 00:33:12;;;;;;;0.60;0.43;;;24.40;52.70;23.30;101760.00;;;;5018846;28;20088;-66
2022/07/13 00:35:58;;;;;;;1.52;0.43;;;24.40;52.70;23.30;101756.00;;;;5024481;28;20053;-66
2022/07/13 00:38:44;;;;;;;0.47;0.30;;;24.40;52.70;23.30;101759.00;;;;5020735;28;20037;-66
2022/07/13 00:41:30;;;;;;;0.40;0.40;;;24.40;52.70;23.30;101753.00;;;;5027214;28;20048;-66
2022/07/13 00:44:16;;;;;;;0.55;0.43;;;24.40;52.60;23.30;101747.00;;;;5026938;28;20041;-66
2022/07/13 00:47:02;;;;;;;1.55;0.40;;;24.40;52.70;23.30;101737.00;;;;5021204;28;20704;-66
2022/07/13 00:49:49;;;;;;;0.68;0.57;;;24.40;52.60;23.30;101736.00;;;;5024621;28;20289;-66
2022/07/13 00:52:36;;;;;;;0.47;0.40;;;24.40;52.60;23.30;101721.00;;;;5023892;28;20568;-66
2022/07/13 00:55:22;;;;;;;0.52;0.50;;;24.40;52.70;23.30;101718.00;;;;5026956;28;20738;-66
2022/07/13 00:58:09;;;;;;;1.50;0.70;;;24.50;53.00;23.30;101725.00;;;;5037764;28;20125;-66
2022/07/13 01:00:55;;;;;;;0.50;0.50;;;24.40;53.00;23.30;101723.00;;;;5026342;28;20041;-66
2022/07/13 01:03:41;;;;;;;0.80;0.60;;;24.40;53.10;23.30;101722.00;;;;5023339;28;20052;-66
2022/07/13 01:06:27;;;;;;;2.15;0.93;;;24.40;53.20;23.30;101719.00;;;;5027502;28;20046;-66
2022/07/13 01:09:13;;;;;;;1.02;0.90;;;24.40;53.40;23.30;101713.00;;;;5023352;28;20506;-66
2022/07/13 01:11:59;;;;;;;0.68;0.68;;;24.50;53.40;23.30;101697.00;;;;5024824;28;20079;-66
2022/07/13 01:14:45;;;;;;;2.47;0.80;;;24.40;53.40;23.30;101695.00;;;;5026161;28;20422;-66
2022/07/13 01:17:32;;;;;;;0.60;0.60;;;24.40;53.50;23.30;101687.00;;;;5039788;28;20103;-66
2022/07/13 01:20:18;;;;;;;1.00;0.82;;;24.40;53.50;23.30;101682.00;;;;5011201;28;20094;-66
2022/07/13 01:23:12;;;;;;;1.17;0.80;;;24.50;53.60;23.30;101676.00;;;;5012991;28;20594;-66
2022/07/13 01:25:59;;;;;;;0.60;0.60;;;24.40;53.50;23.30;101678.00;;;;5038011;28;20071;-66
2022/07/13 01:28:45;;;;;;;0.75;0.75;;;24.40;53.50;23.30;101674.00;;;;5023488;28;20053;-66
2022/07/13 01:31:39;;;;;;;0.65;0.65;;;24.40;54.10;23.30;101671.00;;;;5022930;28;20609;-66
2022/07/13 01:34:25;;;;;;;1.38;1.05;;;24.40;53.50;23.30;101658.00;;;;5027734;28;20045;-66
2022/07/13 01:37:11;;;;;;;1.65;0.75;;;24.40;53.40;23.30;101656.00;;;;5023730;28;20037;-66
2022/07/13 01:39:57;;;;;;;0.95;0.80;;;24.40;53.30;23.30;101656.00;;;;5027593;28;20060;-66
2022/07/13 01:42:51;;;;;;;0.70;0.70;;;24.40;53.30;23.30;101659.00;;;;5020414;28;20045;-66
2022/07/13 01:45:37;;;;;;;1.65;0.70;;;24.40;53.40;23.30;101660.00;;;;5021214;28;20081;-66
2022/07/13 01:48:23;;;;;;;0.70;0.70;;;24.40;53.40;23.30;101654.00;;;;5017437;28;20033;-66
2022/07/13 01:51:09;;;;;;;0.50;0.50;;;24.40;53.40;23.30;101648.00;;;;5017005;28;20045;-66
2022/07/13 01:53:56;;;;;;;1.23;0.80;;;24.40;53.30;23.30;101644.00;;;;5022100;28;20038;-66
2022/07/13 01:56:42;;;;;;;0.70;0.60;;;24.40;53.30;23.30;101658.00;;;;5023805;28;20499;-66
2022/07/13 01:59:28;;;;;;;0.85;0.70;;;24.40;53.20;23.30;101655.00;;;;5022314;28;20033;-66
2022/07/13 02:02:14;;;;;;;0.88;0.85;;;24.40;53.20;23.30;101643.00;;;;5023429;28;20047;-66
2022/07/13 02:05:00;;;;;;;1.85;0.60;;;24.40;53.30;23.30;101644.00;;;;5018392;28;20041;-66
2022/07/13 02:07:46;;;;;;;0.55;0.52;;;24.50;53.40;23.30;101638.00;;;;5035847;28;20131;-66
2022/07/13 02:10:35;;;;;;;1.75;0.70;;;24.40;53.20;23.30;101638.00;;;;5018975;28;20050;-66
2022/07/13 02:13:21;;;;;;;1.15;1.00;;;24.40;53.30;23.30;101639.00;;;;5022040;28;20094;-66
2022/07/13 02:16:07;;;;;;;1.77;0.98;;;24.40;53.20;23.30;101627.00;;;;5022152;28;20104;-66
2022/07/13 02:18:53;;;;;;;0.95;0.63;;;24.40;53.20;23.30;101607.00;;;;5019263;28;20068;-66
2022/07/13 02:21:39;;;;;;;1.05;0.65;;;24.40;53.20;23.30;101609.00;;;;5023081;28;20407;-66
2022/07/13 02:24:25;;;;;;;0.82;0.82;;;24.40;53.20;23.30;101616.00;;;;5023602;28;20044;-66
2022/07/13 02:27:11;;;;;;;1.08;0.80;;;24.40;53.20;23.30;101612.00;;;;5022659;28;20483;-66
2022/07/13 02:29:58;;;;;;;0.88;0.80;;;24.40;53.20;23.30;101614.00;;;;5018987;28;20054;-67
2022/07/13 02:32:45;;;;;;;1.88;0.73;;;24.40;53.20;23.30;101609.00;;;;5017568;28;20086;-66
2022/07/13 02:35:31;;;;;;;0.70;0.70;;;24.50;53.40;23.30;101604.00;;;;5039815;28;20430;-66
2022/07/13 02:38:17;;;;;;;2.03;0.70;;;24.50;53.30;23.30;101603.00;;;;5038902;28;20039;-66
2022/07/13 02:41:03;;;;;;;0.63;0.63;;;24.40;53.10;23.30;101619.00;;;;5026473;28;20110;-66
2022/07/13 02:43:49;;;;;;;0.98;0.70;;;24.50;53.30;23.30;101616.00;;;;5019434;28;20050;-66
2022/07/13 02:46:35;;;;;;;1.48;0.90;;;24.50;53.20;23.30;101620.00;;;;5021515;28;20052;-66
2022/07/13 02:49:21;;;;;;;1.15;0.73;;;24.40;53.10;23.30;101619.00;;;;5023530;28;20286;-66
2022/07/13 02:52:07;;;;;;;0.82;0.80;;;24.40;53.10;23.30;101600.00;;;;5018086;28;20128;-66
2022/07/13 02:54:54;;;;;;;0.75;0.70;;;24.40;53.10;23.30;101599.00;;;;5023337;28;20034;-66
2022/07/13 02:57:40;;;;;;;0.70;0.70;;;24.40;53.20;23.30;101596.00;;;;5027430;28;20557;-66
2022/07/13 03:00:26;;;;;;;1.95;1.50;;;24.40;53.20;23.30;101601.00;;;;5036134;28;20038;-66
2022/07/13 03:03:12;;;;;;;0.70;0.70;;;24.40;53.20;23.30;101597.00;;;;5023325;28;20048;-66
2022/07/13 03:05:58;;;;;;;0.70;0.70;;;24.40;53.20;23.30;101602.00;;;;5017733;28;20288;-66
2022/07/13 03:08:45;;;;;;;0.60;0.60;;;24.40;53.20;23.30;101609.00;;;;5021679;28;20045;-66
2022/07/13 03:11:31;;;;;;;1.38;0.75;;;24.40;53.10;23.30;101601.00;;;;5024898;28;20045;-66
2022/07/13 03:14:17;;;;;;;1.90;0.90;;;24.40;53.20;23.30;101584.00;;;;5028676;28;20037;-66
2022/07/13 03:17:03;;;;;;;0.80;0.80;;;24.40;53.20;23.30;101586.00;;;;5028899;28;20507;-66
2022/07/13 03:19:49;;;;;;;0.85;0.70;;;24.40;53.20;23.30;101573.00;;;;5021962;28;20040;-66
2022/07/13 03:22:35;;;;;;;1.35;1.00;;;24.40;53.20;23.30;101575.00;;;;5017632;28;20050;-66
2022/07/13 03:25:21;;;;;;;0.80;0.80;;;24.40;53.20;23.30;101585.00;;;;5027768;28;20111;-66
2022/07/13 03:28:07;;;;;;;1.30;1.00;;;24.40;53.20;23.30;101581.00;;;;5019122;28;20038;-66
2022/07/13 03:30:53;;;;;;;1.52;1.00;;;24.40;53.10;23.30;101578.00;;;;5024477;28;20058;-66
2022/07/13 03:33:39;;;;;;;0.85;0.70;;;24.40;53.20;23.30;101573.00;;;;5005424;28;20095;-66
2022/07/13 03:36:25;;;;;;;0.70;0.70;;;24.40;53.20;23.30;101576.00;;;;5026369;28;20037;-66
2022/07/13 03:39:11;;;;;;;0.82;0.77;;;24.40;53.10;23.30;101582.00;;;;5022646;28;20122;-66
2022/07/13 03:41:57;;;;;;;1.73;0.82;;;24.50;53.20;23.40;101581.00;;;;5025820;28;20138;-66
2022/07/13 03:44:43;;;;;;;1.75;0.95;;;24.40;53.10;23.30;101580.00;;;;5024871;28;20049;-66
2022/07/13 03:47:29;;;;;;;0.60;0.60;;;24.40;53.10;23.30;101582.00;;;;5021451;28;20422;-67
2022/07/13 03:50:15;;;;;;;0.65;0.65;;;24.40;53.20;23.30;101582.00;;;;5026778;28;20049;-66
2022/07/13 03:53:01;;;;;;;0.63;0.63;;;24.40;53.20;23.30;101580.00;;;;5021944;28;20741;-66
2022/07/13 03:55:47;;;;;;;1.35;0.82;;;24.50;53.10;23.30;101572.00;;;;5027691;28;20045;-66
2022/07/13 03:58:34;;;;;;;1.27;0.70;;;24.40;53.10;23.30;101574.00;;;;5023974;28;20037;-66
2022/07/13 04:01:20;;;;;;;1.33;0.75;;;24.40;53.20;23.30;101563.00;;;;5026997;28;20042;-66
2022/07/13 04:04:06;;;;;;;0.80;0.68;;;24.40;53.10;23.30;101560.00;;;;5021359;28;20052;-66
2022/07/13 04:06:52;;;;;;;1.13;0.63;;;24.40;53.10;23.30;101558.00;;;;5021964;28;20042;-66
2022/07/13 04:09:38;;;;;;;0.80;0.80;;;24.40;53.20;23.30;101569.00;;;;5023805;28;20478;-66
2022/07/13 04:12:24;;;;;;;1.13;0.82;;;24.40;53.20;23.40;101576.00;;;;5024463;28;20258;-66
2022/07/13 04:15:13;;;;;;;0.70;0.70;;;24.40;53.10;23.30;101572.00;;;;5024656;28;20049;-66
2022/07/13 04:17:59;;;;;;;0.88;0.68;;;24.40;53.10;23.30;101568.00;;;;5028835;28;20076;-66
2022/07/13 04:20:45;;;;;;;0.98;0.65;;;24.40;53.10;23.30;101567.00;;;;5027613;28;20048;-66
2022/07/13 04:23:31;;;;;;;1.55;0.75;;;24.40;53.00;23.30;101568.00;;;;5023282;28;20069;-66
2022/07/13 04:26:17;;;;;;;1.17;0.80;;;24.40;53.00;23.30;101531.00;;;;5031947;28;20048;-66
2022/07/13 04:29:04;;;;;;;1.63;0.88;;;24.40;53.10;23.30;101525.00;;;;5024079;28;20037;-66
2022/07/13 04:31:50;;;;;;;0.70;0.70;;;24.40;53.10;23.30;101533.00;;;;5027687;28;20482;-66
2022/07/13 04:34:56;;;;;;;1.80;0.80;;;24.40;53.00;23.30;101516.00;;;;5026081;28;20068;-66
2022/07/13 04:37:42;;;;;;;0.90;0.90;;;24.40;53.00;23.30;101524.00;;;;5026786;28;20469;-67
2022/07/13 04:40:28;;;;;;;0.85;0.82;;;24.50;53.10;23.30;101519.00;;;;5029960;28;20037;-67
2022/07/13 04:43:14;;;;;;;0.75;0.75;;;24.40;53.00;23.30;101510.00;;;;5023307;28;20125;-66
2022/07/13 04:46:00;;;;;;;1.38;0.80;;;24.40;52.90;23.30;101514.00;;;;5029782;28;20076;-66
2022/07/13 04:48:46;;;;;;;2.83;1.23;;;24.40;52.90;23.30;101508.00;;;;5019873;28;20053;-66
2022/07/13 04:51:35;;;;;;;0.70;0.70;;;24.40;52.80;23.30;101515.00;;;;5021457;28;20410;-66
2022/07/13 04:54:21;;;;;;;1.48;0.70;;;24.40;52.90;23.30;101510.00;;;;5021219;28;20064;-66
2022/07/13 04:57:07;;;;;;;0.88;0.88;;;24.40;52.80;23.30;101505.00;;;;5024218;28;20034;-66
2022/07/13 04:59:53;;;;;;;1.77;1.00;;;24.40;52.80;23.30;101508.00;;;;5026493;28;20053;-66
2022/07/13 05:02:39;;;;;;;1.20;0.82;;;24.40;52.80;23.30;101512.00;;;;5022480;28;20513;-67
2022/07/13 05:05:28;;;;;;;2.10;1.00;;;24.40;52.80;23.30;101504.00;;;;5025850;28;20037;-66
2022/07/13 05:08:14;;;;;;;1.20;1.10;;;24.40;52.80;23.30;101506.00;;;;5030525;28;20041;-66
2022/07/13 05:11:00;;;;;;;1.58;0.93;;;24.40;52.80;23.30;101494.00;;;;5027295;28;20490;-66
2022/07/13 05:13:46;;;;;;;1.52;1.30;;;24.40;52.80;23.30;101494.00;;;;5024748;28;20045;-66
2022/07/13 05:16:32;;;;;;;1.33;0.90;;;24.50;52.80;23.30;101495.00;;;;5027550;28;20052;-66
2022/07/13 05:19:18;;;;;;;0.88;0.88;;;24.40;52.70;23.30;101496.00;;;;5030561;28;20482;-66
2022/07/13 05:22:04;;;;;;;1.52;0.98;;;24.50;52.70;23.30;101490.00;;;;5023295;28;20063;-66
2022/07/13 05:24:50;;;;;;;1.10;0.95;;;24.40;52.70;23.30;101485.00;;;;5028149;28;20196;-66
2022/07/13 05:27:36;;;;;;;4.25;1.15;;;24.40;52.70;23.30;101497.00;;;;5023984;28;20061;-66
2022/07/13 05:30:22;;;;;;;1.83;1.38;;;24.50;52.60;23.30;101486.00;;;;5026504;28;20047;-66
2022/07/13 05:33:08;;;;;;;1.17;0.90;;;24.40;52.60;23.30;101493.00;;;;5023978;28;20473;-66
2022/07/13 05:35:54;;;;;;;1.10;1.00;;;24.40;52.50;23.30;101485.00;;;;5024469;28;20034;-66
2022/07/13 05:38:40;;;;;;;2.00;1.10;;;24.40;52.50;23.30;101486.00;;;;5025348;28;20505;-66
2022/07/13 05:41:27;;;;;;;1.70;1.20;;;24.40;52.40;23.30;101480.00;;;;5021355;28;20087;-66
2022/07/13 05:44:13;;;;;;;2.67;1.08;;;24.40;52.40;23.30;101480.00;;;;5025921;28;20042;-67
2022/07/13 05:47:00;;;;;;;1.80;1.20;;;24.40;52.30;23.30;101492.00;;;;5019964;28;20095;-66
2022/07/13 05:49:46;;;;;;;1.77;1.52;;;24.40;52.20;23.30;101488.00;;;;5024389;28;20084;-66
2022/07/13 05:52:33;;;;;;;1.33;1.23;;;24.40;52.20;23.30;101486.00;;;;5022260;28;20415;-67
2022/07/13 05:55:19;;;;;;;1.30;1.20;;;24.40;52.20;23.30;101488.00;;;;5022753;28;20040;-66
2022/07/13 05:58:05;;;;;;;3.50;1.13;;;24.40;52.10;23.30;101477.00;;;;5022576;28;20042;-66
2022/07/13 06:00:51;;;;;;;2.08;1.30;;;24.40;51.80;23.30;101485.00;;;;5022255;28;20060;-66
2022/07/13 06:03:37;;;;;;;1.52;0.80;;;24.40;51.90;23.30;101480.00;;;;5020310;28;20419;-67
2022/07/13 06:06:23;;;;;;;3.05;1.35;;;24.40;51.90;23.30;101472.00;;;;5022870;28;20049;-66
2022/07/13 06:09:09;;;;;;;1.77;1.20;;;24.40;51.90;23.30;101473.00;;;;5022946;28;20053;-66
2022/07/13 06:11:55;;;;;;;1.10;1.00;;;24.40;51.80;23.30;101468.00;;;;5023288;28;20434;-66
2022/07/13 06:14:41;;;;;;;3.47;1.48;;;24.40;51.80;23.30;101462.00;;;;5015160;28;20136;-66
2022/07/13 06:17:27;;;;;;;1.30;1.20;;;24.40;52.50;23.30;101474.00;;;;5020693;28;20060;-66
2022/07/13 06:20:13;;;;;;;1.60;1.10;;;24.40;51.80;23.30;101463.00;;;;5033125;28;20037;-66
2022/07/13 06:23:11;;;;;;;1.90;1.20;;;24.40;51.70;23.30;101458.00;;;;5010783;28;20065;-66
2022/07/13 06:25:58;;;;;;;2.60;1.33;;;24.40;51.70;23.30;101456.00;;;;5022212;28;20042;-66
2022/07/13 06:28:44;;;;;;;1.77;1.20;;;24.40;51.80;23.30;101453.00;;;;5018913;28;20072;-66
2022/07/13 06:31:30;;;;;;;8.77;1.20;;;24.40;51.80;23.30;101454.00;;;;5021595;28;20509;-66
2022/07/13 06:34:16;;;;;;;8.65;1.50;;;24.40;51.80;23.30;101456.00;;;;5019968;28;20391;-66
2022/07/13 06:37:02;;;;;;;2.83;1.58;;;24.40;51.60;23.30;101456.00;;;;5021400;28;20041;-66
2022/07/13 06:39:48;;;;;;;1.83;1.50;;;24.40;51.70;23.30;101454.00;;;;5031992;28;20040;-66
2022/07/13 06:42:34;;;;;;;4.82;1.55;;;24.40;51.70;23.30;101448.00;;;;5023723;28;20045;-66
2022/07/13 06:45:22;;;;;;;2.47;1.30;;;24.40;51.50;23.30;101441.00;;;;5021483;28;20399;-66
2022/07/13 06:48:08;;;;;;;2.17;1.25;;;24.40;51.50;23.30;101438.00;;;;5006561;28;20065;-66
2022/07/13 06:50:54;;;;;;;2.17;1.23;;;24.40;51.50;23.30;101439.00;;;;5021618;28;20048;-66
2022/07/13 06:53:40;;;;;;;2.35;1.30;;;24.40;51.50;23.30;101435.00;;;;5022503;28;20050;-66
2022/07/13 06:56:26;;;;;;;4.03;1.70;;;24.40;51.40;23.30;101438.00;;;;5020593;28;20049;-66
2022/07/13 06:59:12;;;;;;;1.80;1.20;;;24.40;51.60;23.30;101441.00;;;;5024519;28;20053;-66
2022/07/13 07:01:58;;;;;;;1.42;1.17;;;24.40;51.60;23.30;101442.00;;;;5020772;28;20053;-66
2022/07/13 07:04:44;;;;;;;3.05;1.65;;;24.40;51.30;23.30;101432.00;;;;5020324;28;20041;-66
2022/07/13 07:07:30;;;;;;;5.35;1.77;;;24.40;51.10;23.30;101435.00;;;;5016273;28;20104;-66
2022/07/13 07:10:16;;;;;;;2.30;1.30;;;24.40;51.10;23.30;101440.00;;;;5023252;28;20537;-66
2022/07/13 07:13:02;;;;;;;1.45;1.35;;;24.40;51.00;23.30;101446.00;;;;5025883;28;20053;-66
2022/07/13 07:15:49;;;;;;;2.47;1.67;;;24.40;51.10;23.30;101450.00;;;;5024762;28;20534;-66
2022/07/13 07:18:35;;;;;;;2.60;1.65;;;24.40;51.20;23.30;101450.00;;;;5023983;28;20053;-66
2022/07/13 07:21:21;;;;;;;3.35;1.63;;;24.40;51.20;23.30;101453.00;;;;5021822;28;20490;-66
2022/07/13 07:24:07;;;;;;;1.60;1.40;;;24.40;51.10;23.30;101450.00;;;;5019976;28;20052;-66
2022/07/13 07:26:53;;;;;;;3.13;1.60;;;24.40;51.20;23.30;101443.00;;;;5026037;28;20699;-66
2022/07/13 07:29:39;;;;;;;7.93;1.55;;;24.40;51.20;23.30;101431.00;;;;5024518;28;20052;-66
2022/07/13 07:32:25;;;;;;;4.68;1.95;;;24.40;51.20;23.30;101434.00;;;;5018636;28;20120;-66
2022/07/13 07:35:11;;;;;;;2.00;1.35;;;24.40;51.20;23.30;101434.00;;;;5027121;28;20521;-66
2022/07/13 07:37:57;;;;;;;2.45;1.63;;;24.40;51.20;23.30;101431.00;;;;5017786;28;20060;-66
2022/07/13 07:40:43;;;;;;;1.95;1.60;;;24.40;51.20;23.30;101434.00;;;;5025076;28;20120;-66
2022/07/13 07:43:29;;;;;;;1.67;1.50;;;24.40;51.20;23.30;101435.00;;;;5018718;28;20071;-66
2022/07/13 07:46:15;;;;;;;2.53;1.85;;;24.40;51.30;23.30;101444.00;;;;5026384;28;20483;-66
2022/07/13 07:49:03;;;;;;;1.95;1.60;;;24.40;51.30;23.30;101437.00;;;;5026077;28;20046;-66
2022/07/13 07:51:49;;;;;;;;;;;24.50;51.40;23.30;101437.00;;;;5021096;28;20104;-66
2022/07/13 07:54:35;;;;;;;1.70;1.60;;;24.40;51.50;23.30;101440.00;;;;5023477;28;20294;-66
2022/07/13 07:57:21;;;;;;;2.85;1.50;;;24.50;51.40;23.30;101441.00;;;;5019481;28;20041;-67
2022/07/13 08:00:08;;;;;;;2.53;1.88;;;24.40;51.30;23.30;101443.00;;;;5028873;28;20068;-66
2022/07/13 08:02:57;;;;;;;3.05;1.83;;;24.40;51.20;23.30;101441.00;;;;5019932;28;20467;-66
2022/07/13 08:05:48;;;;;;;2.00;1.60;;;24.40;51.30;23.30;101440.00;;;;5023904;28;20051;-66
2022/07/13 08:08:34;;;;;;;2.70;1.88;;;24.40;51.20;23.40;101440.00;;;;5023726;28;20049;-66
2022/07/13 08:11:20;;;;;;;2.72;1.83;;;24.40;51.20;23.40;101429.00;;;;5022419;28;20046;-66
2022/07/13 08:14:06;;;;;;;4.82;2.20;;;24.40;51.10;23.40;101425.00;;;;5025082;28;20053;-66
2022/07/13 08:16:52;;;;;;;2.95;1.83;;;24.40;51.10;23.40;101433.00;;;;5024055;28;20507;-66
2022/07/13 08:19:38;;;;;;;2.35;1.70;;;24.40;51.10;23.40;101430.00;;;;5024498;28;20048;-66
2022/07/13 08:22:24;;;;;;;4.85;1.98;;;24.40;51.10;23.40;101425.00;;;;5022665;28;20094;-67
2022/07/13 08:25:10;;;;;;;4.35;1.92;;;24.50;51.20;23.40;101427.00;;;;5021075;28;20053;-66
2022/07/13 08:27:57;;;;;;;3.72;2.10;;;24.40;51.20;23.40;101426.00;;;;5020660;28;20041;-66
2022/07/13 08:30:44;;;;;;;4.88;1.98;;;24.40;51.20;23.40;101421.00;;;;5024153;28;20456;-66
2022/07/13 08:39:39;;;;;;;2.63;2.25;;;24.40;51.20;23.40;101420.00;;;;5032404;28;20136;-66
2022/07/13 08:42:25;;;;;;;2.08;1.83;;;24.50;51.30;23.40;101417.00;;;;5017238;28;20121;-67
2022/07/13 08:45:11;;;;;;;4.28;2.22;;;24.40;51.20;23.40;101430.00;;;;5024018;28;20041;-67
2022/07/13 08:47:57;;;;;;;2.33;1.63;;;24.50;51.30;23.40;101421.00;;;;5021359;28;20045;-66
2022/07/13 08:50:43;;;;;;;7.53;2.08;;;24.50;51.30;23.50;101416.00;;;;4988263;28;20046;-66
2022/07/13 08:53:30;;;;;;;3.08;1.90;;;24.50;51.30;23.50;101417.00;;;;5004911;28;20065;-66
2022/07/13 08:56:16;;;;;;;4.57;2.50;;;24.50;51.30;23.50;101417.00;;;;5015533;28;20052;-66
2022/07/13 08:59:02;;;;;;;2.20;1.98;;;24.60;51.30;23.50;101416.00;;;;5021841;28;20510;-66
2022/07/13 09:01:49;;;;;;;4.53;2.10;;;24.50;51.30;23.50;101413.00;;;;5021077;28;20396;-66
2022/07/13 09:04:35;;;;;;;2.90;1.83;;;24.60;51.40;23.50;101422.00;;;;5023890;28;20052;-67
2022/07/13 09:07:21;;;;;;;2.60;2.10;;;24.60;51.30;23.50;101409.00;;;;5023091;28;20108;-66
2022/07/13 09:10:07;;;;;;;3.60;1.92;;;24.60;51.30;23.50;101415.00;;;;5024275;28;20084;-66
2022/07/13 09:12:53;;;;;;;5.03;2.38;;;24.60;51.20;23.50;101417.00;;;;5023644;28;20083;-66
2022/07/13 09:15:39;;;;;;;3.30;1.95;;;24.60;51.20;23.50;101413.00;;;;5031191;28;20034;-66
2022/07/13 09:18:26;;;;;;;2.67;1.67;;;24.60;51.20;23.50;101410.00;;;;5025427;28;20041;-66
2022/07/13 09:21:12;;;;;;;1.95;1.70;;;24.60;51.20;23.50;101414.00;;;;5025910;28;20318;-66
2022/07/13 09:24:01;;;;;;;2.90;1.80;;;24.60;51.20;23.50;101404.00;;;;5021412;28;20045;-68
2022/07/13 09:26:47;;;;;;;2.10;1.77;;;24.60;51.30;23.50;101405.00;;;;5021846;28;20065;-67
2022/07/13 09:29:36;;;;;;;2.90;2.35;;;24.60;51.20;23.50;101401.00;;;;5021817;28;20042;-66
2022/07/13 09:32:22;;;;;;;3.58;2.28;;;24.70;51.30;23.50;101402.00;;;;5020705;28;20042;-66
2022/07/13 09:35:08;;;;;;;2.95;1.70;;;24.60;51.20;23.60;101396.00;;;;5023341;28;20543;-66
2022/07/13 09:37:54;;;;;;;6.15;2.08;;;24.60;51.20;23.60;101392.00;;;;5020798;28;20048;-66
2022/07/13 09:40:40;;;;;;;6.80;1.92;;;24.70;51.30;23.60;101398.00;;;;5025261;28;20123;-66
2022/07/13 09:46:31;;;;;;;2.35;1.80;;;24.70;51.30;23.60;101394.00;;;;5022341;28;20152;-66
2022/07/13 09:49:18;;;;;;;3.92;2.20;;;24.70;51.30;23.60;101397.00;;;;5025198;28;20045;-66
2022/07/13 09:52:06;;;;;;;3.47;1.52;;;24.60;51.20;23.60;101393.00;;;;5022546;28;20048;-66
2022/07/13 09:54:52;;;;;;;;;;;24.70;51.40;23.50;101403.00;;;;5031972;28;20041;-66
2022/07/13 09:57:44;;;;;;;3.38;1.75;;;24.70;51.50;23.50;101397.00;;;;5036730;28;19991;-66
2022/07/13 10:00:30;;;;;;;3.42;2.10;;;24.70;51.20;23.60;101401.00;;;;5022826;28;20092;-66
2022/07/13 10:03:16;;;;;;;4.28;2.20;;;24.70;51.20;23.60;101401.00;;;;4996069;28;20049;-66
2022/07/13 10:06:02;;;;;;;7.03;2.22;;;24.70;51.30;23.60;101390.00;;;;5012759;28;20041;-66
2022/07/13 10:08:48;;;;;;;2.10;1.63;;;24.70;51.30;23.60;101398.00;;;;5025935;28;20037;-66
2022/07/13 10:11:34;;;;;;;3.65;1.95;;;24.70;51.40;23.60;101395.00;;;;5025896;28;20056;-66
2022/07/13 10:14:20;;;;;;;2.60;1.95;;;24.70;51.30;23.60;101398.00;;;;5026550;28;20041;-66
2022/07/13 10:17:10;;;;;;;4.18;2.15;;;24.70;51.40;23.60;101393.00;;;;5016148;28;20045;-66
2022/07/13 10:19:56;;;;;;;2.95;1.67;;;24.70;51.40;23.60;101390.00;;;;5014448;28;20038;-66
2022/07/13 10:22:46;;;;;;;4.18;2.03;;;24.70;51.50;23.60;101395.00;;;;5022165;28;20048;-66
2022/07/13 10:25:45;;;;;;;1.95;1.75;;;24.70;51.50;23.60;101408.00;;;;5018659;28;20044;-66
2022/07/13 10:28:32;;;;;;;2.30;1.90;;;24.70;51.50;23.70;101400.00;;;;5037689;28;20052;-66
2022/07/13 10:31:29;;;;;;;3.38;2.25;;;24.80;51.50;23.70;101391.00;;;;5017104;28;20049;-66
2022/07/13 10:34:15;;;;;;;5.78;2.72;;;24.80;51.60;23.70;101407.00;;;;5027145;28;20065;-66
2022/07/13 10:37:01;;;;;;;2.50;2.20;;;24.80;51.70;23.70;101415.00;;;;5023288;28;20041;-67
2022/07/13 10:40:11;;;;;;;;;;;24.80;52.30;23.70;101401.00;;;;5025431;28;20475;-66
2022/07/13 10:43:05;;;;;;;3.20;2.10;;;24.80;51.70;23.70;101406.00;;;;5026405;28;19912;-67
2022/07/13 10:45:52;;;;;;;2.67;1.98;;;24.90;51.60;23.70;101409.00;;;;5025075;28;20533;-66
2022/07/13 10:48:38;;;;;;;3.38;2.05;;;24.80;51.50;23.70;101414.00;;;;5024740;28;20495;-66
2022/07/13 10:51:24;;;;;;;4.13;2.28;;;24.80;51.60;23.70;101414.00;;;;5022886;28;20510;-66
2022/07/13 10:54:10;;;;;;;3.70;2.42;;;24.90;51.70;23.70;101402.00;;;;5027410;28;20037;-66
2022/07/13 10:57:32;;;;;;;7.03;2.20;;;24.90;51.80;23.80;101407.00;;;;5021590;28;20037;-67
2022/07/13 11:00:19;;;;;;;2.70;2.05;;;24.90;51.70;23.80;101401.00;;;;5014670;28;20049;-66
2022/07/13 11:03:06;;;;;;;4.13;2.30;;;25.00;51.80;23.80;101405.00;;;;5022279;28;20051;-66
2022/07/13 11:06:09;;;;;;;2.97;2.15;;;24.90;51.90;23.80;101395.00;;;;5023890;28;20494;-66
2022/07/13 11:09:18;;;;;;;3.65;2.38;;;24.90;51.90;23.80;101403.00;;;;5036690;28;20050;-66
2022/07/13 11:12:20;;;;;;;3.47;2.25;;;24.90;51.90;23.80;101404.00;;;;5021788;28;20487;-66
2022/07/13 11:15:17;;;;;;;2.65;2.33;;;25.00;51.80;23.80;101400.00;;;;5020032;28;20273;-67
2022/07/13 11:18:21;;;;;;;5.45;2.85;;;24.90;51.80;23.80;101402.00;;;;5016946;28;20033;-66
2022/07/13 11:21:12;;;;;;;3.28;2.55;;;25.00;51.80;23.80;101405.00;;;;5019200;28;20414;-66
2022/07/13 11:27:11;;;;;;;3.90;2.63;;;25.00;51.70;23.80;101393.00;;;;5006151;28;20068;-66
2022/07/13 11:29:58;;;;;;;4.03;2.38;;;25.00;51.70;23.90;101394.00;;;;5014154;28;20038;-66
2022/07/13 11:32:44;;;;;;;3.75;2.70;;;25.00;51.70;23.90;101403.00;;;;5020576;28;20091;-66
2022/07/13 11:35:30;;;;;;;4.07;2.42;;;25.00;51.70;23.90;101392.00;;;;5018296;28;20065;-66
2022/07/13 11:38:17;;;;;;;10.95;2.95;;;25.10;51.70;23.90;101382.00;;;;5019166;28;20038;-66
2022/07/13 11:41:03;;;;;;;5.28;2.53;;;25.10;51.60;23.90;101389.00;;;;5020232;28;20445;-66
2022/07/13 11:43:53;;;;;;;4.22;2.60;;;25.10;51.70;23.90;101391.00;;;;5009566;28;20040;-66
2022/07/13 11:46:39;;;;;;;3.85;2.38;;;25.10;51.70;23.90;101395.00;;;;5023771;28;20042;-66
2022/07/13 11:49:27;;;;;;;3.53;2.47;;;25.10;51.60;23.90;101379.00;;;;5005955;28;20037;-66
2022/07/13 11:52:24;;;;;;;;;;;25.10;51.10;23.90;101392.00;;;;5020663;28;20128;-66
2022/07/13 11:55:11;;;;;;;4.22;2.25;;;25.10;51.80;23.90;101385.00;;;;5013205;28;19921;-66
2022/07/13 11:57:59;;;;;;;2.45;2.10;;;25.20;51.60;23.90;101397.00;;;;5020438;28;20093;-66
2022/07/13 12:00:45;;;;;;;3.42;2.50;;;25.20;51.50;23.90;101392.00;;;;5002664;28;20041;-66
2022/07/13 12:03:33;;;;;;;3.65;2.67;;;25.20;51.50;23.90;101403.00;;;;5021196;28;20056;-66
2022/07/13 12:06:19;;;;;;;3.50;2.35;;;25.20;51.60;23.90;101396.00;;;;5018587;28;20047;-66
2022/07/13 12:09:15;;;;;;;5.93;2.88;;;25.10;51.40;23.90;101394.00;;;;5020059;28;20394;-66
2022/07/13 12:12:01;;;;;;;3.95;2.55;;;25.20;51.50;23.90;101388.00;;;;5021653;28;20102;-66
2022/07/13 12:14:48;;;;;;;2.83;2.20;;;25.20;51.50;24.00;101393.00;;;;5033940;28;20132;-66
2022/07/13 12:17:48;;;;;;;2.72;2.50;;;25.20;51.50;24.00;101391.00;;;;5024440;28;20419;-66
2022/07/13 12:20:34;;;;;;;4.25;2.15;;;25.20;51.50;24.00;101384.00;;;;5022693;28;20410;-66
2022/07/13 12:23:21;;;;;;;5.47;2.80;;;25.10;51.30;24.00;101388.00;;;;5019380;28;20041;-66
2022/07/13 12:26:07;;;;;;;3.33;2.25;;;25.20;51.40;24.00;101387.00;;;;5021297;28;20137;-66
2022/07/13 12:28:53;;;;;;;3.33;2.40;;;25.20;51.40;24.00;101384.00;;;;5019932;28;20465;-66